createdAt,value
2024-03-24T00:01:15.925Z,9.43
2024-03-24T00:03:42.774Z,9.41
2024-03-24T00:06:09.550Z,9.40
2024-03-24T00:08:36.427Z,9.38
2024-03-24T00:11:03.587Z,9.37
2024-03-24T00:13:32.424Z,9.35
2024-03-24T00:15:59.308Z,9.32
2024-03-24T00:18:27.340Z,9.30
2024-03-24T00:20:54.431Z,9.28
2024-03-24T00:23:21.916Z,9.26
2024-03-24T00:25:48.731Z,9.23
2024-03-24T00:28:15.599Z,9.20
2024-03-24T00:30:42.947Z,9.17
2024-03-24T00:33:09.675Z,9.14
2024-03-24T00:35:36.321Z,9.10
2024-03-24T00:38:03.482Z,9.07
2024-03-24T00:40:31.060Z,9.03
2024-03-24T00:42:57.656Z,9.00
2024-03-24T00:45:24.432Z,8.97
2024-03-24T00:47:52.276Z,8.94
2024-03-24T00:50:18.934Z,8.92
2024-03-24T00:52:45.749Z,8.89
2024-03-24T00:55:12.431Z,8.86
2024-03-24T00:57:39.238Z,8.84
2024-03-24T01:00:07.469Z,8.80
2024-03-24T01:02:34.559Z,8.76
2024-03-24T01:05:01.753Z,8.73
2024-03-24T01:07:31.369Z,8.70
2024-03-24T01:09:58.231Z,8.66
2024-03-24T01:12:25.121Z,8.64
2024-03-24T01:14:52.124Z,8.62
2024-03-24T01:17:18.921Z,8.59
2024-03-24T01:19:45.672Z,8.57
2024-03-24T01:22:12.478Z,8.54
2024-03-24T01:24:39.188Z,8.51
2024-03-24T01:27:06.158Z,8.49
2024-03-24T01:29:33.864Z,8.47
2024-03-24T01:32:00.669Z,8.45
2024-03-24T01:34:27.701Z,8.44
2024-03-24T01:36:54.401Z,8.42
2024-03-24T01:39:21.135Z,8.40
2024-03-24T01:41:48.288Z,8.37
2024-03-24T01:44:17.404Z,8.35
2024-03-24T01:46:44.060Z,8.34
2024-03-24T01:49:11.664Z,8.32
2024-03-24T01:51:38.407Z,8.30
2024-03-24T01:54:05.132Z,8.28
2024-03-24T01:56:31.950Z,8.25
2024-03-24T01:58:58.691Z,8.23
2024-03-24T02:01:25.343Z,8.20
2024-03-24T02:03:52.039Z,8.17
2024-03-24T02:06:18.729Z,8.15
2024-03-24T02:08:45.382Z,8.13
2024-03-24T02:11:12.116Z,8.11
2024-03-24T02:13:38.860Z,8.08
2024-03-24T02:16:06.319Z,8.07
2024-03-24T02:18:33.196Z,8.04
2024-03-24T02:20:59.977Z,8.03
2024-03-24T02:23:27.345Z,8.01
2024-03-24T02:25:54.149Z,7.99
2024-03-24T02:28:20.872Z,7.97
2024-03-24T02:30:48.578Z,7.94
2024-03-24T02:33:15.188Z,7.92
2024-03-24T02:35:42.753Z,7.90
2024-03-24T02:38:09.387Z,7.88
2024-03-24T02:40:36.100Z,7.86
2024-03-24T02:43:03.252Z,7.84
2024-03-24T02:45:30.094Z,7.82
2024-03-24T02:47:56.920Z,7.81
2024-03-24T02:50:23.721Z,7.79
2024-03-24T02:52:50.477Z,7.77
2024-03-24T02:55:17.175Z,7.73
2024-03-24T02:57:43.971Z,7.71
2024-03-24T03:00:11.681Z,7.68
2024-03-24T03:02:38.627Z,7.65
2024-03-24T03:05:07.014Z,7.62
2024-03-24T03:07:33.654Z,7.59
2024-03-24T03:10:00.825Z,7.56
2024-03-24T03:12:27.508Z,7.54
2024-03-24T03:14:54.168Z,7.54
2024-03-24T03:17:21.637Z,7.53
2024-03-24T03:19:49.296Z,7.52
2024-03-24T03:22:16.049Z,7.50
2024-03-24T03:24:42.751Z,7.48
2024-03-24T03:27:11.717Z,7.45
2024-03-24T03:29:38.427Z,7.42
2024-03-24T03:32:05.773Z,7.38
2024-03-24T03:34:32.536Z,7.37
2024-03-24T03:36:59.434Z,7.35
2024-03-24T03:39:26.267Z,7.33
2024-03-24T03:41:53.052Z,7.30
2024-03-24T03:44:20.364Z,7.28
2024-03-24T03:46:47.080Z,7.26
2024-03-24T03:49:15.767Z,7.22
2024-03-24T03:51:44.860Z,7.18
2024-03-24T03:54:12.240Z,7.15
2024-03-24T03:56:39.251Z,7.12
2024-03-24T03:59:06.690Z,7.10
2024-03-24T04:01:33.599Z,7.07
2024-03-24T04:04:00.508Z,7.05
2024-03-24T04:06:27.504Z,7.04
2024-03-24T04:08:54.122Z,7.02
2024-03-24T04:11:20.961Z,7.00
2024-03-24T04:13:51.304Z,6.98
2024-03-24T04:16:17.929Z,6.95
2024-03-24T04:18:48.456Z,6.94
2024-03-24T04:21:15.363Z,6.92
2024-03-24T04:23:42.132Z,6.89
2024-03-24T04:26:08.868Z,6.87
2024-03-24T04:28:35.787Z,6.84
2024-03-24T04:31:02.474Z,6.82
2024-03-24T04:33:29.522Z,6.80
2024-03-24T04:35:56.254Z,6.77
2024-03-24T04:38:22.878Z,6.75
2024-03-24T04:40:49.530Z,6.73
2024-03-24T04:43:16.206Z,6.72
2024-03-24T04:45:46.715Z,6.71
2024-03-24T04:48:13.499Z,6.69
2024-03-24T04:50:42.313Z,6.68
2024-03-24T04:53:10.420Z,6.66
2024-03-24T04:55:37.403Z,6.66
2024-03-24T04:58:04.266Z,6.65
2024-03-24T05:00:32.337Z,6.63
2024-03-24T05:02:59.190Z,6.61
2024-03-24T05:05:26.818Z,6.61
2024-03-24T05:07:53.465Z,6.59
2024-03-24T05:10:20.285Z,6.58
2024-03-24T05:12:47.915Z,6.57
2024-03-24T05:15:15.134Z,6.56
2024-03-24T05:17:43.531Z,6.57
2024-03-24T05:20:11.519Z,6.57
2024-03-24T05:22:38.421Z,6.56
2024-03-24T05:25:06.097Z,6.55
2024-03-24T05:27:32.944Z,6.52
2024-03-24T05:29:59.669Z,6.50
2024-03-24T05:32:26.456Z,6.50
2024-03-24T05:34:53.251Z,6.50
2024-03-24T05:37:19.915Z,6.49
2024-03-24T05:39:49.901Z,6.48
2024-03-24T05:42:16.777Z,6.47
2024-03-24T05:44:43.659Z,6.45
2024-03-24T05:47:10.424Z,6.42
2024-03-24T05:49:37.576Z,6.40
2024-03-24T05:52:06.224Z,6.38
2024-03-24T05:54:33.234Z,6.38
2024-03-24T05:56:59.924Z,6.37
2024-03-24T05:59:26.807Z,6.37
2024-03-24T06:01:53.935Z,6.37
2024-03-24T06:04:20.800Z,6.36
2024-03-24T06:06:47.525Z,6.34
2024-03-24T06:09:14.630Z,6.30
2024-03-24T06:11:41.299Z,6.28
2024-03-24T06:14:08.031Z,6.26
2024-03-24T06:16:34.695Z,6.25
2024-03-24T06:19:01.397Z,6.26
2024-03-24T06:21:28.189Z,6.29
2024-03-24T06:23:55.026Z,6.30
2024-03-24T06:26:22.371Z,6.31
2024-03-24T06:28:49.091Z,6.33
2024-03-24T06:31:15.876Z,6.34
2024-03-24T06:33:42.484Z,6.37
2024-03-24T06:36:09.264Z,6.43
2024-03-24T06:38:35.991Z,6.48
2024-03-24T06:41:02.683Z,6.53
2024-03-24T06:43:42.808Z,6.61
2024-03-24T06:46:10.058Z,6.72
2024-03-24T06:48:37.247Z,6.81
2024-03-24T06:51:05.317Z,6.88
2024-03-24T06:53:31.971Z,6.93
2024-03-24T06:55:58.887Z,6.96
2024-03-24T06:58:25.758Z,6.97
2024-03-24T07:00:53.245Z,6.98
2024-03-24T07:03:23.453Z,6.98
2024-03-24T07:05:50.120Z,6.94
2024-03-24T07:08:16.898Z,6.86
2024-03-24T07:10:43.760Z,6.78
2024-03-24T07:13:11.105Z,6.73
2024-03-24T07:15:38.246Z,6.70
2024-03-24T07:18:05.384Z,6.70
2024-03-24T07:20:32.162Z,6.73
2024-03-24T07:22:58.861Z,6.78
2024-03-24T07:25:25.801Z,6.85
2024-03-24T07:27:52.544Z,6.93
2024-03-24T07:30:19.295Z,7.02
2024-03-24T07:32:46.983Z,7.09
2024-03-24T07:35:14.110Z,7.17
2024-03-24T07:37:41.156Z,7.25
2024-03-24T07:40:08.593Z,7.30
2024-03-24T07:42:35.712Z,7.34
2024-03-24T07:45:03.347Z,7.39
2024-03-24T07:47:35.460Z,7.43
2024-03-24T07:50:04.356Z,7.46
2024-03-24T07:52:31.807Z,7.52
2024-03-24T07:54:58.612Z,7.60
2024-03-24T07:57:25.504Z,7.63
2024-03-24T07:59:55.080Z,7.66
2024-03-24T08:02:22.295Z,7.67
2024-03-24T08:04:49.043Z,7.67
2024-03-24T08:07:15.867Z,7.73
2024-03-24T08:09:42.700Z,7.82
2024-03-24T08:12:09.610Z,7.91
2024-03-24T08:14:36.748Z,7.97
2024-03-24T08:17:03.962Z,8.03
2024-03-24T08:19:30.865Z,8.11
2024-03-24T08:21:58.074Z,8.16
2024-03-24T08:24:24.928Z,8.19
2024-03-24T08:26:54.942Z,8.24
2024-03-24T08:29:22.037Z,8.31
2024-03-24T08:31:48.947Z,8.41
2024-03-24T08:34:15.892Z,8.51
2024-03-24T08:36:42.653Z,8.62
2024-03-24T08:39:10.162Z,8.70
2024-03-24T08:41:36.957Z,8.79
2024-03-24T08:44:04.304Z,8.85
2024-03-24T08:46:31.228Z,8.85
2024-03-24T08:48:58.021Z,8.80
2024-03-24T08:51:24.865Z,8.69
2024-03-24T08:53:51.784Z,8.61
2024-03-24T08:56:18.628Z,8.53
2024-03-24T08:58:45.677Z,8.50
2024-03-24T09:01:12.415Z,8.46
2024-03-24T09:03:39.199Z,8.39
2024-03-24T09:06:07.436Z,8.36
2024-03-24T09:08:34.249Z,8.37
2024-03-24T09:11:01.103Z,8.36
2024-03-24T09:13:28.165Z,8.39
2024-03-24T09:15:54.964Z,8.44
2024-03-24T09:18:21.793Z,8.50
2024-03-24T09:20:49.353Z,8.52
2024-03-24T09:23:16.660Z,8.54
2024-03-24T09:25:43.494Z,8.56
2024-03-24T09:28:10.348Z,8.58
2024-03-24T09:30:37.296Z,8.61
2024-03-24T09:33:04.408Z,8.66
2024-03-24T09:35:32.204Z,8.72
2024-03-24T09:37:58.955Z,8.74
2024-03-24T09:40:26.006Z,8.78
2024-03-24T09:42:52.845Z,8.84
2024-03-24T09:45:19.632Z,8.88
2024-03-24T09:47:48.938Z,8.94
2024-03-24T09:50:15.731Z,8.98
2024-03-24T09:52:42.657Z,9.02
2024-03-24T09:55:15.996Z,9.09
2024-03-24T09:57:43.243Z,9.10
2024-03-24T10:00:11.478Z,9.05
2024-03-24T10:02:43.094Z,8.99
2024-03-24T10:05:09.931Z,8.94
2024-03-24T10:07:36.830Z,8.93
2024-03-24T10:10:04.964Z,8.92
2024-03-24T10:12:31.871Z,8.91
2024-03-24T10:15:20.282Z,8.87
2024-03-24T10:17:47.121Z,8.87
2024-03-24T10:20:14.302Z,8.91
2024-03-24T10:22:41.809Z,8.96
2024-03-24T10:25:11.971Z,9.02
2024-03-24T10:27:39.716Z,9.05
2024-03-24T10:30:07.360Z,9.06
2024-03-24T10:32:34.755Z,9.04
2024-03-24T10:35:01.673Z,9.02
2024-03-24T10:37:29.071Z,8.99
2024-03-24T10:39:56.173Z,8.96
2024-03-24T10:42:23.149Z,8.99
2024-03-24T10:44:50.561Z,9.04
2024-03-24T10:47:17.500Z,9.09
2024-03-24T10:49:44.383Z,9.15
2024-03-24T10:52:11.200Z,9.20
2024-03-24T10:54:38.151Z,9.23
2024-03-24T10:57:05.741Z,9.21
2024-03-24T10:59:33.019Z,9.15
2024-03-24T11:02:00.761Z,9.09
2024-03-24T11:04:28.901Z,9.04
2024-03-24T11:06:55.969Z,9.00
2024-03-24T11:09:22.660Z,8.97
2024-03-24T11:11:49.470Z,8.97
2024-03-24T11:14:16.353Z,8.98
2024-03-24T11:16:43.313Z,9.00
2024-03-24T11:19:10.276Z,9.02
2024-03-24T11:21:39.820Z,9.05
2024-03-24T11:24:36.753Z,9.06
2024-03-24T11:27:05.055Z,9.05
2024-03-24T11:29:48.345Z,9.02
2024-03-24T11:32:18.253Z,8.98
2024-03-24T11:34:55.806Z,8.97
2024-03-24T11:37:29.725Z,8.96
2024-03-24T11:39:56.568Z,9.00
2024-03-24T11:42:29.694Z,9.05
2024-03-24T11:44:56.702Z,9.12
2024-03-24T11:47:24.614Z,9.19
2024-03-24T11:49:52.206Z,9.24
2024-03-24T11:52:20.874Z,9.28
2024-03-24T11:54:47.758Z,9.32
2024-03-24T11:57:15.024Z,9.37
2024-03-24T11:59:43.681Z,9.41
2024-03-24T12:02:10.616Z,9.44
2024-03-24T12:04:37.460Z,9.45
2024-03-24T12:07:06.885Z,9.45
2024-03-24T12:09:33.858Z,9.43
2024-03-24T12:12:01.246Z,9.41
2024-03-24T12:14:28.050Z,9.37
2024-03-24T12:17:08.015Z,9.33
2024-03-24T12:19:36.394Z,9.30
2024-03-24T12:22:03.669Z,9.26
2024-03-24T12:24:30.556Z,9.23
2024-03-24T12:26:57.375Z,9.20
2024-03-24T12:29:24.231Z,9.16
2024-03-24T12:31:51.107Z,9.09
2024-03-24T12:34:21.725Z,9.05
2024-03-24T12:36:48.456Z,9.00
2024-03-24T12:39:15.219Z,8.95
2024-03-24T12:41:42.124Z,8.89
2024-03-24T12:44:09.082Z,8.83
2024-03-24T12:46:36.276Z,8.76
2024-03-24T12:49:14.163Z,8.69
2024-03-24T12:51:41.758Z,8.63
2024-03-24T12:54:29.001Z,8.59
2024-03-24T12:56:55.961Z,8.55
2024-03-24T12:59:22.711Z,8.53
2024-03-24T13:01:49.520Z,8.50
2024-03-24T13:04:16.895Z,8.46
2024-03-24T13:06:44.211Z,8.43
2024-03-24T13:09:11.186Z,8.39
2024-03-24T13:11:37.916Z,8.35
2024-03-24T13:14:05.695Z,8.32
2024-03-24T13:16:50.654Z,8.28
2024-03-24T13:19:22.926Z,8.24
2024-03-24T13:22:10.833Z,8.18
2024-03-24T13:24:46.289Z,8.13
2024-03-24T13:27:59.021Z,8.09
2024-03-24T13:30:25.881Z,8.05
2024-03-24T13:32:53.869Z,8.02
2024-03-24T13:35:20.759Z,7.96
2024-03-24T13:37:53.422Z,7.87
2024-03-24T13:40:37.965Z,7.76
2024-03-24T13:43:26.592Z,7.65
2024-03-24T13:46:16.304Z,7.58
2024-03-24T13:48:43.832Z,7.51
2024-03-24T13:51:10.820Z,7.44
2024-03-24T13:53:44.034Z,7.37
2024-03-24T13:56:10.970Z,7.31
2024-03-24T13:58:38.028Z,7.25
2024-03-24T14:01:05.112Z,7.18
2024-03-24T14:03:32.043Z,7.08
2024-03-24T14:05:59.097Z,6.96
2024-03-24T14:08:26.221Z,6.81
2024-03-24T14:10:53.237Z,6.71
2024-03-24T14:13:20.073Z,6.67
2024-03-24T14:15:55.828Z,6.64
2024-03-24T14:18:42.812Z,6.58
2024-03-24T14:21:12.075Z,6.54
2024-03-24T14:23:57.376Z,6.53
2024-03-24T14:26:24.225Z,6.49
2024-03-24T14:28:51.145Z,6.43
2024-03-24T14:31:17.878Z,6.39
2024-03-24T14:33:44.707Z,6.35
2024-03-24T14:36:29.748Z,6.31
2024-03-24T14:39:32.637Z,6.26
2024-03-24T14:42:00.555Z,6.19
2024-03-24T14:44:57.599Z,6.14
2024-03-24T14:47:46.476Z,6.10
2024-03-24T14:50:13.797Z,6.06
2024-03-24T14:52:40.868Z,6.00
2024-03-24T14:55:07.992Z,5.96
2024-03-24T14:57:34.858Z,5.93
2024-03-24T15:00:01.790Z,5.92
2024-03-24T15:02:30.390Z,5.90
2024-03-24T15:04:57.577Z,5.89
2024-03-24T15:07:24.396Z,5.88
2024-03-24T15:09:51.941Z,5.86
2024-03-24T15:12:19.140Z,5.83
2024-03-24T15:14:45.899Z,5.80
2024-03-24T15:17:12.756Z,5.76
2024-03-24T15:19:40.247Z,5.75
2024-03-24T15:22:07.433Z,5.74
2024-03-24T15:24:34.223Z,5.74
2024-03-24T15:27:00.951Z,5.74
2024-03-24T15:29:28.824Z,5.76
2024-03-24T15:31:55.716Z,5.77
2024-03-24T15:34:22.496Z,5.78
2024-03-24T15:36:50.217Z,5.77
2024-03-24T15:39:17.843Z,5.76
2024-03-24T15:41:44.776Z,5.73
2024-03-24T15:44:11.891Z,5.68
2024-03-24T15:46:38.682Z,5.62
2024-03-24T15:49:05.654Z,5.59
2024-03-24T15:51:32.415Z,5.58
2024-03-24T15:53:59.238Z,5.56
2024-03-24T15:56:49.443Z,5.55
2024-03-24T15:59:34.588Z,5.51
2024-03-24T16:02:03.236Z,5.46
2024-03-24T16:04:30.175Z,5.41
2024-03-24T16:06:58.489Z,5.38
2024-03-24T16:09:29.138Z,5.35
2024-03-24T16:11:59.076Z,5.33
2024-03-24T16:14:37.934Z,5.30
2024-03-24T16:17:04.778Z,5.26
2024-03-24T16:19:31.591Z,5.21
2024-03-24T16:22:18.373Z,5.18
2024-03-24T16:24:45.170Z,5.15
2024-03-24T16:27:11.961Z,5.12
2024-03-24T16:29:39.247Z,5.11
2024-03-24T16:32:06.797Z,5.07
2024-03-24T16:34:33.631Z,5.04
2024-03-24T16:37:00.391Z,5.02
2024-03-24T16:39:27.292Z,5.00
2024-03-24T16:41:54.057Z,4.99
2024-03-24T16:44:20.830Z,4.99
2024-03-24T16:46:48.076Z,4.99
2024-03-24T16:49:14.967Z,5.00
2024-03-24T16:51:41.854Z,5.00
2024-03-24T16:54:08.569Z,4.99
2024-03-24T16:56:35.328Z,4.97
2024-03-24T16:59:02.077Z,4.95
2024-03-24T17:01:29.549Z,4.90
2024-03-24T17:03:56.340Z,4.88
2024-03-24T17:06:23.309Z,4.87
2024-03-24T17:08:51.090Z,4.88
2024-03-24T17:11:18.194Z,4.90
2024-03-24T17:13:44.988Z,4.92
2024-03-24T17:16:11.867Z,4.92
2024-03-24T17:18:38.728Z,4.91
2024-03-24T17:21:06.045Z,4.90
2024-03-24T17:23:32.850Z,4.87
2024-03-24T17:26:00.395Z,4.86
2024-03-24T17:28:27.251Z,4.85
2024-03-24T17:30:55.048Z,4.84
2024-03-24T17:33:21.960Z,4.83
2024-03-24T17:35:48.850Z,4.81
2024-03-24T17:38:16.739Z,4.82
2024-03-24T17:40:44.074Z,4.81
2024-03-24T17:43:12.245Z,4.79
2024-03-24T17:45:39.114Z,4.77
2024-03-24T17:48:06.732Z,4.72
2024-03-24T17:50:33.591Z,4.66
2024-03-24T17:53:02.417Z,4.65
2024-03-24T17:55:30.958Z,4.65
2024-03-24T17:57:57.826Z,4.64
2024-03-24T18:00:24.561Z,4.63
2024-03-24T18:02:51.313Z,4.63
2024-03-24T18:05:18.639Z,4.61
2024-03-24T18:08:04.296Z,4.57
2024-03-24T18:10:32.125Z,4.56
2024-03-24T18:12:58.861Z,4.56
2024-03-24T18:15:26.153Z,4.56
2024-03-24T18:17:53.116Z,4.56
2024-03-24T18:20:20.066Z,4.57
2024-03-24T18:22:48.432Z,4.58
2024-03-24T18:25:18.155Z,4.58
2024-03-24T18:27:45.252Z,4.57
2024-03-24T18:30:12.895Z,4.56
2024-03-24T18:32:39.696Z,4.56
2024-03-24T18:35:08.232Z,4.57
2024-03-24T18:37:37.588Z,4.57
2024-03-24T18:40:06.643Z,4.55
2024-03-24T18:42:33.577Z,4.54
2024-03-24T18:45:01.927Z,4.52
2024-03-24T18:47:29.033Z,4.51
2024-03-24T18:49:55.877Z,4.50
2024-03-24T18:52:22.915Z,4.47
2024-03-24T18:54:49.721Z,4.45
2024-03-24T18:57:16.724Z,4.43
2024-03-24T18:59:44.777Z,4.41
2024-03-24T19:02:12.743Z,4.38
2024-03-24T19:04:39.567Z,4.33
2024-03-24T19:07:06.361Z,4.29
2024-03-24T19:09:33.212Z,4.25
2024-03-24T19:12:00.241Z,4.23
2024-03-24T19:14:26.992Z,4.21
2024-03-24T19:16:56.843Z,4.21
2024-03-24T19:19:24.352Z,4.20
2024-03-24T19:21:51.220Z,4.20
2024-03-24T19:24:18.133Z,4.20
2024-03-24T19:26:45.136Z,4.21
2024-03-24T19:29:11.955Z,4.22
2024-03-24T19:31:38.781Z,4.24
2024-03-24T19:34:05.521Z,4.25
2024-03-24T19:36:34.546Z,4.26
2024-03-24T19:39:03.063Z,4.26
2024-03-24T19:41:30.232Z,4.26
2024-03-24T19:43:58.200Z,4.26
2024-03-24T19:46:27.457Z,4.26
2024-03-24T19:48:54.356Z,4.27
2024-03-24T19:51:21.376Z,4.29
2024-03-24T19:53:48.833Z,4.30
2024-03-24T19:56:15.584Z,4.32
2024-03-24T19:58:43.397Z,4.33
2024-03-24T20:01:10.923Z,4.34
2024-03-24T20:03:37.797Z,4.34
2024-03-24T20:06:05.201Z,4.34
2024-03-24T20:08:32.041Z,4.35
2024-03-24T20:10:58.855Z,4.35
2024-03-24T20:13:25.643Z,4.35
2024-03-24T20:15:54.587Z,4.35
2024-03-24T20:18:21.480Z,4.33
2024-03-24T20:20:49.799Z,4.31
2024-03-24T20:23:19.774Z,4.30
2024-03-24T20:25:46.675Z,4.28
2024-03-24T20:28:13.803Z,4.27
2024-03-24T20:30:40.786Z,4.28
2024-03-24T20:33:07.962Z,4.25
2024-03-24T20:35:34.723Z,4.24
2024-03-24T20:38:04.195Z,4.23
2024-03-24T20:40:31.049Z,4.24
2024-03-24T20:42:57.995Z,4.24
2024-03-24T20:45:24.925Z,4.24
2024-03-24T20:47:51.876Z,4.24
2024-03-24T20:50:18.731Z,4.24
2024-03-24T20:52:45.626Z,4.23
2024-03-24T20:55:12.412Z,4.22
2024-03-24T20:57:42.509Z,4.21
2024-03-24T21:00:10.630Z,4.21
2024-03-24T21:02:38.333Z,4.20
2024-03-24T21:05:06.156Z,4.19
2024-03-24T21:07:32.964Z,4.19
2024-03-24T21:10:00.503Z,4.19
2024-03-24T21:12:27.405Z,4.19
2024-03-24T21:14:54.367Z,4.19
2024-03-24T21:17:21.894Z,4.17
2024-03-24T21:19:49.786Z,4.16
2024-03-24T21:22:16.615Z,4.14
2024-03-24T21:24:43.490Z,4.12
2024-03-24T21:27:10.299Z,4.08
2024-03-24T21:29:37.719Z,4.04
2024-03-24T21:32:05.481Z,4.00
2024-03-24T21:34:33.176Z,3.98
2024-03-24T21:37:00.355Z,3.95
2024-03-24T21:39:45.724Z,3.92
2024-03-24T21:42:13.900Z,3.88
2024-03-24T21:44:41.543Z,3.83
2024-03-24T21:47:13.116Z,3.78
2024-03-24T21:49:40.433Z,3.75
2024-03-24T21:52:07.622Z,3.73
2024-03-24T21:54:34.361Z,3.72
2024-03-24T21:57:01.654Z,3.74
2024-03-24T21:59:28.719Z,3.75
2024-03-24T22:01:55.488Z,3.76
2024-03-24T22:04:22.381Z,3.77
2024-03-24T22:07:01.505Z,3.78
2024-03-24T22:09:33.108Z,3.78
2024-03-24T22:12:00.020Z,3.77
2024-03-24T22:14:26.644Z,3.77
2024-03-24T22:16:53.394Z,3.77
2024-03-24T22:19:20.034Z,3.76
2024-03-24T22:21:46.647Z,3.76
2024-03-24T22:24:13.460Z,3.76
2024-03-24T22:26:40.242Z,3.76
2024-03-24T22:29:07.221Z,3.75
2024-03-24T22:31:33.922Z,3.76
2024-03-24T22:36:28.964Z,3.75
2024-03-24T22:38:56.812Z,3.76
2024-03-24T22:41:23.852Z,3.75
2024-03-24T22:43:50.721Z,3.75
2024-03-24T22:46:17.615Z,3.74
2024-03-24T22:48:44.366Z,3.74
2024-03-24T22:51:11.013Z,3.73
2024-03-24T22:53:44.677Z,3.72
2024-03-24T22:56:12.256Z,3.72
2024-03-24T22:58:40.372Z,3.73
2024-03-24T23:01:09.832Z,3.72
2024-03-24T23:03:37.307Z,3.73
2024-03-24T23:06:11.828Z,3.73
2024-03-24T23:08:38.990Z,3.72
2024-03-24T23:11:05.864Z,3.71
2024-03-24T23:13:32.852Z,3.71
2024-03-24T23:15:59.712Z,3.71
2024-03-24T23:18:26.370Z,3.69
2024-03-24T23:20:53.094Z,3.68
2024-03-24T23:23:20.011Z,3.67
2024-03-24T23:25:46.722Z,3.67
2024-03-24T23:28:13.499Z,3.66
2024-03-24T23:30:40.353Z,3.65
2024-03-24T23:33:07.104Z,3.65
2024-03-24T23:35:34.147Z,3.66
2024-03-24T23:38:00.796Z,3.65
2024-03-24T23:40:27.595Z,3.65
2024-03-24T23:42:57.305Z,3.65
2024-03-24T23:45:24.132Z,3.64
2024-03-24T23:47:54.733Z,3.63
2024-03-24T23:50:22.337Z,3.61
2024-03-24T23:52:49.290Z,3.59
2024-03-24T23:55:16.036Z,3.58
2024-03-24T23:57:46.630Z,3.55
